Time;durP1;ratioP1;P1;durP2;ratioP2;P2;SDS_P1;SDS_P2;PMS_P1;PMS_P2;Temp;Humidity;BMP_temperature;BMP_pressure;BME280_temperature;BME280_humidity;BME280_pressure;Samples;Min_cycle;Max_cycle;Signal;HPM_P1;HPM_P2
2022/10/17 00:02:50;;;;;;;5.57;5.17;;;;;;;20.22;38.67;96342.63;6112188;28;103107;-69
2022/10/17 00:05:53;;;;;;;5.93;5.53;;;;;;;20.21;38.83;96351.66;6101369;28;103289;-69
2022/10/17 00:08:56;;;;;;;6.13;5.63;;;;;;;20.20;38.45;96336.78;6112052;28;103221;-69
2022/10/17 00:12:01;;;;;;;6.17;5.67;;;;;;;20.19;38.90;96340.50;6113820;28;103331;-70
2022/10/17 00:15:06;;;;;;;5.70;5.30;;;;;;;20.20;38.68;96346.59;6112436;28;103226;-70
2022/10/17 00:18:09;;;;;;;5.93;5.43;;;;;;;20.18;38.58;96346.88;6108178;28;103798;-69
2022/10/17 00:21:16;;;;;;;5.83;5.33;;;;;;;20.20;38.80;96347.41;6111843;28;104773;-69
2022/10/17 00:24:19;;;;;;;5.43;5.03;;;;;;;20.19;38.66;96347.66;6111367;28;103222;-70
2022/10/17 00:27:24;;;;;;;5.40;5.00;;;;;;;20.19;38.71;96355.63;6118345;28;102718;-69
2022/10/17 00:30:28;;;;;;;6.03;5.63;;;;;;;20.16;38.81;96351.63;6106415;28;104536;-70
2022/10/17 00:33:32;;;;;;;6.87;6.17;;;;;;;20.15;38.86;96349.22;6110523;28;103010;-70
2022/10/17 00:36:35;;;;;;;6.03;5.53;;;;;;;20.16;38.67;96353.47;6124881;28;103115;-69
2022/10/17 00:39:38;;;;;;;5.87;5.47;;;;;;;20.16;38.71;96356.94;6106278;28;103244;-69
2022/10/17 00:42:42;;;;;;;5.93;5.43;;;;;;;20.15;38.66;96351.88;6113122;28;103057;-70
2022/10/17 00:45:45;;;;;;;5.70;5.30;;;;;;;20.13;38.79;96362.78;6122740;28;103228;-70
2022/10/17 00:48:50;;;;;;;6.30;5.73;;;;;;;20.12;38.74;96363.84;6122876;28;103148;-70
2022/10/17 00:51:57;;;;;;;5.97;5.50;;;;;;;20.13;38.78;96362.78;6106391;28;103458;-69
2022/10/17 00:55:07;;;;;;;5.80;5.40;;;;;;;20.13;38.82;96361.97;6127850;28;103335;-70
2022/10/17 00:58:11;;;;;;;5.80;5.40;;;;;;;20.13;38.54;96360.13;6116332;28;103383;-70
2022/10/17 01:01:15;;;;;;;6.50;5.90;;;;;;;20.14;38.82;96364.38;6114189;28;103226;-69
2022/10/17 01:04:19;;;;;;;5.60;5.20;;;;;;;20.09;38.65;96361.72;6103915;28;103054;-70
2022/10/17 01:07:22;;;;;;;5.70;5.30;;;;;;;20.12;38.70;96360.38;6130699;28;103304;-69
2022/10/17 01:10:32;;;;;;;6.00;5.50;;;;;;;20.10;38.70;96354.53;6114731;28;103904;-69
2022/10/17 01:13:42;;;;;;;5.70;5.20;;;;;;;20.09;38.78;96353.72;6110760;28;103789;-69
2022/10/17 01:16:52;;;;;;;5.43;5.03;;;;;;;20.08;38.87;96360.09;6112597;28;103006;-70
2022/10/17 01:20:32;;;;;;;6.30;5.80;;;;;;;20.09;38.69;96351.06;6114626;28;103145;-70
2022/10/17 01:24:28;;;;;;;5.97;5.57;;;;;;;20.08;38.95;96354.78;6102442;28;102794;-69
2022/10/17 01:27:50;;;;;;;6.13;5.53;;;;;;;20.05;38.67;96350.00;6102736;28;104754;-69
2022/10/17 01:31:04;;;;;;;5.63;5.23;;;;;;;20.06;38.71;96356.91;6114690;28;103572;-69
2022/10/17 01:34:14;;;;;;;6.27;5.73;;;;;;;20.05;38.86;96357.19;6113826;28;103114;-69
2022/10/17 01:37:23;;;;;;;6.10;5.60;;;;;;;20.05;38.53;96354.53;6099327;28;103508;-69
2022/10/17 01:40:30;;;;;;;6.67;6.10;;;;;;;20.04;38.63;96356.38;6129093;28;103444;-72
2022/10/17 01:43:39;;;;;;;5.73;5.23;;;;;;;20.02;38.65;96364.63;6114506;28;103107;-72
2022/10/17 01:46:46;;;;;;;6.20;5.70;;;;;;;20.00;38.57;96364.06;6112743;28;103275;-72
2022/10/17 01:49:53;;;;;;;6.43;5.60;;;;;;;20.02;38.59;96363.81;6103563;28;103035;-72
2022/10/17 01:53:02;;;;;;;6.67;6.00;;;;;;;20.02;38.58;96367.28;6121311;28;103440;-72
2022/10/17 01:56:09;;;;;;;6.27;5.77;;;;;;;20.00;38.58;96360.63;6100545;28;103168;-68
2022/10/17 01:59:15;;;;;;;6.80;6.20;;;;;;;20.00;38.67;96364.06;6108750;28;103246;-69
2022/10/17 02:02:21;;;;;;;6.63;5.90;;;;;;;19.99;38.75;96373.06;6107483;28;104198;-68
2022/10/17 02:05:29;;;;;;;6.60;6.00;;;;;;;19.99;38.58;96369.63;6113663;28;103248;-68
2022/10/17 02:08:41;;;;;;;5.90;5.40;;;;;;;19.98;38.72;96373.34;6118856;28;103273;-69
2022/10/17 02:11:53;;;;;;;6.20;5.70;;;;;;;19.98;38.59;96378.66;6103524;28;103079;-69
2022/10/17 02:15:17;;;;;;;5.60;5.20;;;;;;;19.99;38.69;96373.06;6112694;28;102694;-68
2022/10/17 02:18:34;;;;;;;6.70;6.20;;;;;;;20.00;38.73;96371.25;6110624;28;103226;-68
2022/10/17 02:21:49;;;;;;;7.10;6.50;;;;;;;19.96;38.71;96378.13;6114006;28;103200;-68
2022/10/17 02:24:59;;;;;;;6.47;5.93;;;;;;;19.95;38.47;96377.31;6102872;28;103244;-69
2022/10/17 02:28:10;;;;;;;5.87;5.40;;;;;;;19.97;38.67;96382.38;6113084;28;103257;-68
2022/10/17 02:31:17;;;;;;;5.50;5.10;;;;;;;19.95;38.71;96376.53;6114175;28;103769;-69
2022/10/17 02:34:28;;;;;;;6.50;6.07;;;;;;;19.95;38.79;96389.81;6104551;28;103364;-70
2022/10/17 02:37:32;;;;;;;6.27;5.80;;;;;;;19.96;38.76;96388.75;6107054;28;106314;-72
2022/10/17 02:40:37;;;;;;;6.60;6.10;;;;;;;19.94;38.42;96380.25;6114092;28;103626;-69
2022/10/17 02:43:44;;;;;;;6.40;5.90;;;;;;;19.95;38.56;96379.19;6113275;28;104111;-70
2022/10/17 02:46:55;;;;;;;6.20;5.70;;;;;;;19.93;38.53;96394.56;6090251;28;103247;-69
2022/10/17 02:50:00;;;;;;;5.87;5.37;;;;;;;19.94;38.85;96393.53;6113002;28;103494;-69
2022/10/17 02:53:08;;;;;;;6.47;5.90;;;;;;;19.95;38.67;96395.13;6112639;28;103235;-70
2022/10/17 02:56:17;;;;;;;6.10;5.60;;;;;;;19.92;38.62;96406.25;6115216;28;103189;-69
2022/10/17 02:59:22;;;;;;;6.60;6.00;;;;;;;19.91;38.81;96405.47;6090707;28;105079;-69
2022/10/17 03:02:26;;;;;;;6.10;5.60;;;;;;;19.92;38.90;96414.22;6113017;28;103047;-68
2022/10/17 03:05:31;;;;;;;6.50;6.00;;;;;;;19.92;38.85;96409.72;6112131;28;103126;-68
2022/10/17 03:08:34;;;;;;;8.10;5.73;;;;;;;19.91;38.96;96404.66;6108352;28;102863;-69
2022/10/17 03:11:37;;;;;;;6.43;5.93;;;;;;;19.96;38.99;96417.97;6112936;28;104444;-67
2022/10/17 03:14:40;;;;;;;5.50;5.10;;;;;;;19.98;39.13;96421.97;6112614;28;103161;-67
2022/10/17 03:17:44;;;;;;;6.30;5.77;;;;;;;20.02;39.02;96419.63;6112781;28;103229;-68
2022/10/17 03:20:48;;;;;;;6.80;6.20;;;;;;;19.99;39.14;96420.09;6101926;28;103071;-62
2022/10/17 03:23:51;;;;;;;6.30;5.80;;;;;;;20.03;39.53;96423.88;6104086;28;103447;-69
2022/10/17 03:26:54;;;;;;;6.83;6.17;;;;;;;20.07;39.44;96424.94;6113371;28;103079;-68
2022/10/17 03:29:57;;;;;;;7.07;6.47;;;;;;;20.06;39.51;96426.00;6118513;28;103074;-69
2022/10/17 03:33:00;;;;;;;6.20;5.70;;;;;;;20.09;39.44;96419.38;6101792;28;104431;-69
2022/10/17 03:36:09;;;;;;;7.00;6.33;;;;;;;20.07;39.52;96426.81;6111680;28;103229;-67
2022/10/17 03:39:12;;;;;;;7.90;7.10;;;;;;;20.07;39.53;96424.94;6113759;28;105929;-69
2022/10/17 03:42:15;;;;;;;9.03;7.40;;;;;;;19.99;39.50;96428.88;6109463;28;103092;-68
2022/10/17 03:45:18;;;;;;;8.87;7.97;;;;;;;19.88;39.38;96431.75;6101887;28;103202;-69
2022/10/17 03:48:22;;;;;;;8.80;7.27;;;;;;;19.90;39.46;96433.09;6111606;28;104002;-68
2022/10/17 03:51:26;;;;;;;9.23;8.10;;;;;;;19.91;39.62;96442.66;6111224;28;103030;-69
2022/10/17 03:54:29;;;;;;;8.17;7.43;;;;;;;19.91;39.97;96447.16;6107034;28;103444;-68
2022/10/17 03:57:34;;;;;;;8.73;7.73;;;;;;;19.92;39.85;96443.47;6098444;28;104364;-68
2022/10/17 04:00:37;;;;;;;9.07;8.17;;;;;;;19.99;39.88;96441.34;6112225;28;104352;-68
2022/10/17 04:03:41;;;;;;;8.97;8.13;;;;;;;20.01;40.00;96429.44;6108801;28;103000;-68
2022/10/17 04:06:46;;;;;;;8.60;7.90;;;;;;;20.05;39.95;96437.69;6089543;28;103769;-67
2022/10/17 04:09:49;;;;;;;8.90;8.00;;;;;;;20.16;40.06;96441.19;6109638;28;103412;-67
2022/10/17 04:12:52;;;;;;;10.07;8.13;;;;;;;20.23;39.95;96436.44;6111009;28;103187;-67
2022/10/17 04:15:55;;;;;;;9.17;8.27;;;;;;;20.21;39.80;96447.34;6109830;28;104088;-68
2022/10/17 04:18:59;;;;;;;12.27;9.87;;;;;;;20.10;38.03;96443.03;6102106;28;103322;-68
2022/10/17 04:22:07;;;;;;;11.00;9.57;;;;;;;19.92;37.98;96454.09;6111246;28;103318;-69
2022/10/17 04:25:10;;;;;;;9.90;8.90;;;;;;;19.90;38.50;96454.34;6109460;28;103265;-68
2022/10/17 04:28:13;;;;;;;10.17;9.07;;;;;;;19.90;39.20;96448.22;6110616;28;103164;-68
2022/10/17 04:31:17;;;;;;;10.33;7.90;;;;;;;19.96;38.92;96450.66;6101488;28;103489;-67
2022/10/17 04:34:20;;;;;;;9.33;8.43;;;;;;;19.99;39.11;96454.63;6111469;28;103177;-68
2022/10/17 04:37:24;;;;;;;9.33;8.30;;;;;;;20.01;39.06;96453.34;6111186;28;102826;-67
2022/10/17 04:40:27;;;;;;;8.93;8.17;;;;;;;20.01;38.95;96452.56;6100397;28;103254;-67
2022/10/17 04:43:30;;;;;;;8.30;7.63;;;;;;;20.00;38.99;96461.59;6108971;28;103189;-67
2022/10/17 04:46:34;;;;;;;9.40;7.73;;;;;;;19.99;38.85;96458.09;6109557;28;103095;-67
2022/10/17 04:49:38;;;;;;;8.67;7.97;;;;;;;20.00;39.05;96458.94;6109187;28;103061;-66
2022/10/17 04:52:42;;;;;;;9.13;8.10;;;;;;;19.98;39.20;96467.13;6098596;28;103417;-67
2022/10/17 04:55:45;;;;;;;9.40;8.50;;;;;;;19.99;39.02;96466.06;6111086;28;103155;-67
2022/10/17 04:58:49;;;;;;;8.30;7.60;;;;;;;19.95;38.90;96457.03;6111198;28;102874;-67
2022/10/17 05:01:52;;;;;;;8.60;7.90;;;;;;;19.99;38.87;96470.59;6111742;28;104160;-68
2022/10/17 05:04:55;;;;;;;8.23;7.43;;;;;;;19.97;39.24;96472.69;6100314;28;104250;-67
2022/10/17 05:07:59;;;;;;;9.63;8.73;;;;;;;19.95;38.99;96477.47;6111795;28;103177;-68
2022/10/17 05:11:04;;;;;;;8.50;7.70;;;;;;;19.95;39.24;96486.25;6111586;28;102943;-68
2022/10/17 05:14:08;;;;;;;8.30;7.50;;;;;;;19.99;39.24;96481.22;6106595;28;103049;-67
2022/10/17 05:17:11;;;;;;;9.80;8.07;;;;;;;19.96;39.14;96487.84;6105811;28;103222;-67
2022/10/17 05:20:14;;;;;;;8.37;7.63;;;;;;;19.95;39.18;96488.09;6111422;28;103553;-67
2022/10/17 05:23:19;;;;;;;8.10;7.40;;;;;;;19.96;39.16;96495.00;6113647;28;103534;-67
2022/10/17 05:26:23;;;;;;;8.50;7.47;;;;;;;19.95;39.27;96496.88;6104891;28;103071;-67
2022/10/17 05:29:26;;;;;;;8.17;7.53;;;;;;;19.99;39.05;96499.81;6115087;28;103554;-67
2022/10/17 05:32:29;;;;;;;8.67;7.87;;;;;;;19.98;38.91;96503.53;6115753;28;106163;-67
2022/10/17 05:35:32;;;;;;;8.63;7.83;;;;;;;19.96;39.26;96501.13;6114422;28;103433;-68
2022/10/17 05:38:37;;;;;;;8.30;7.50;;;;;;;19.95;39.34;96509.34;6104348;28;103268;-68
2022/10/17 05:41:40;;;;;;;7.47;6.83;;;;;;;19.98;38.86;96508.84;6115036;28;103051;-68
2022/10/17 05:44:43;;;;;;;9.07;7.60;;;;;;;19.95;39.32;96504.84;6114591;28;103507;-69
2022/10/17 05:47:46;;;;;;;8.10;7.30;;;;;;;19.98;39.02;96503.53;6115105;28;103522;-68
2022/10/17 05:50:49;;;;;;;9.87;6.73;;;;;;;19.98;39.36;96509.63;6106363;28;106105;-68
2022/10/17 05:53:54;;;;;;;7.77;7.17;;;;;;;20.00;39.22;96518.19;6114299;28;102782;-68
2022/10/17 05:56:57;;;;;;;7.63;7.03;;;;;;;20.02;39.19;96515.25;6114223;28;102894;-68
2022/10/17 06:00:00;;;;;;;8.20;7.43;;;;;;;20.09;39.18;96521.16;6105189;28;103701;-69
2022/10/17 06:03:04;;;;;;;8.30;7.40;;;;;;;20.16;39.10;96524.38;6114053;28;103603;-68
2022/10/17 06:06:08;;;;;;;8.10;7.30;;;;;;;20.25;39.14;96524.72;6113910;28;103237;-68
2022/10/17 06:09:13;;;;;;;8.10;7.40;;;;;;;20.34;39.27;96530.38;6114369;28;103092;-68
2022/10/17 06:12:16;;;;;;;7.93;7.23;;;;;;;20.42;38.83;96535.19;6104667;28;104688;-67
2022/10/17 06:15:19;;;;;;;7.17;6.57;;;;;;;20.51;38.64;96536.31;6114339;28;103192;-68
2022/10/17 06:18:22;;;;;;;7.70;7.10;;;;;;;20.59;38.46;96543.78;6114027;28;103162;-68
2022/10/17 06:21:27;;;;;;;7.33;6.77;;;;;;;20.71;38.45;96544.38;6114364;28;103385;-67
2022/10/17 06:24:32;;;;;;;7.57;6.90;;;;;;;20.85;38.13;96550.81;6102453;28;103383;-68
2022/10/17 06:27:35;;;;;;;7.93;7.33;;;;;;;20.99;38.28;96547.66;6113647;28;103048;-70
2022/10/17 06:30:39;;;;;;;7.97;7.20;;;;;;;21.10;38.03;96557.31;6114165;28;103225;-67
2022/10/17 06:33:42;;;;;;;7.83;7.20;;;;;;;21.15;37.80;96550.13;6107880;28;103319;-67
2022/10/17 06:36:45;;;;;;;7.30;6.67;;;;;;;21.28;37.93;96564.81;6109172;28;102855;-67
2022/10/17 06:39:50;;;;;;;7.03;6.43;;;;;;;21.34;37.96;96566.44;6113803;28;103147;-68
2022/10/17 06:42:53;;;;;;;7.10;6.40;;;;;;;21.41;37.86;96563.50;6113486;28;103178;-68
2022/10/17 06:45:56;;;;;;;7.63;6.93;;;;;;;21.49;37.45;96568.31;6103417;28;103105;-68
2022/10/17 06:48:59;;;;;;;7.33;6.63;;;;;;;21.61;37.70;96557.41;6113586;28;104313;-67
2022/10/17 06:52:02;;;;;;;7.10;6.60;;;;;;;21.65;37.85;96569.13;6114218;28;103445;-68
2022/10/17 06:55:07;;;;;;;7.27;6.60;;;;;;;21.74;37.61;96559.56;6112759;28;104248;-68
2022/10/17 06:58:10;;;;;;;7.17;6.57;;;;;;;21.75;37.89;96564.63;6102163;28;103990;-67
2022/10/17 07:01:13;;;;;;;7.33;6.73;;;;;;;21.79;37.46;96563.00;6113498;28;103082;-68
2022/10/17 07:04:16;;;;;;;7.80;7.10;;;;;;;21.80;37.92;96558.47;6114245;28;106441;-68
2022/10/17 07:07:19;;;;;;;7.43;6.73;;;;;;;21.85;37.57;96569.19;6111784;28;103068;-69
2022/10/17 07:10:24;;;;;;;6.23;5.80;;;;;;;21.90;37.64;96566.53;6106498;28;102989;-68
2022/10/17 07:13:27;;;;;;;7.43;6.90;;;;;;;21.98;37.95;96568.63;6112504;28;103081;-67
2022/10/17 07:16:30;;;;;;;7.20;6.60;;;;;;;22.03;38.04;96570.53;6113387;28;103513;-67
2022/10/17 07:19:33;;;;;;;7.17;6.57;;;;;;;22.03;37.88;96568.66;6103766;28;105006;-67
2022/10/17 07:22:36;;;;;;;7.30;6.67;;;;;;;22.08;38.11;96563.31;6112478;28;103132;-67
2022/10/17 07:25:40;;;;;;;7.43;6.83;;;;;;;22.13;37.74;96564.38;6112040;28;103035;-67
2022/10/17 07:28:45;;;;;;;7.13;6.53;;;;;;;22.16;37.81;96571.81;6112447;28;103211;-67
2022/10/17 07:31:49;;;;;;;6.97;6.47;;;;;;;22.19;37.74;96564.13;6101501;28;103042;-67
2022/10/17 07:34:52;;;;;;;7.40;6.80;;;;;;;22.23;37.99;96575.03;6112193;28;103130;-67
2022/10/17 07:37:55;;;;;;;6.27;5.77;;;;;;;22.28;38.15;96556.34;6113441;28;103191;-67
2022/10/17 07:41:01;;;;;;;6.17;5.67;;;;;;;22.31;37.73;96561.94;6112813;28;104089;-67
2022/10/17 07:44:04;;;;;;;7.07;6.47;;;;;;;22.34;37.57;96571.25;6102049;28;103249;-67
2022/10/17 07:47:07;;;;;;;7.20;6.60;;;;;;;22.36;37.55;96567.28;6112832;28;102829;-67
2022/10/17 07:50:10;;;;;;;7.20;6.60;;;;;;;22.39;37.53;96574.75;6112742;28;105771;-67
2022/10/17 07:53:13;;;;;;;6.70;6.20;;;;;;;22.43;37.65;96575.00;6107644;28;103025;-67
2022/10/17 07:56:18;;;;;;;6.20;5.67;;;;;;;22.41;38.27;96571.81;6105893;28;103208;-67
2022/10/17 07:59:21;;;;;;;6.20;5.73;;;;;;;22.46;37.60;96566.44;6112749;28;103043;-67
2022/10/17 08:02:25;;;;;;;7.37;6.77;;;;;;;22.47;38.07;96568.03;6112019;28;103078;-67
2022/10/17 08:05:29;;;;;;;6.60;6.00;;;;;;;22.46;38.04;96558.44;6102021;28;103411;-67
2022/10/17 08:08:32;;;;;;;7.07;6.47;;;;;;;22.49;37.93;96562.44;6111811;28;103130;-67
2022/10/17 08:11:37;;;;;;;6.37;5.77;;;;;;;22.54;38.31;96559.78;6111686;28;103357;-67
2022/10/17 08:14:40;;;;;;;7.43;6.83;;;;;;;22.53;38.10;96558.19;6112148;28;103181;-67
2022/10/17 08:17:43;;;;;;;6.50;6.00;;;;;;;22.51;37.92;96550.41;6101521;28;103242;-67
2022/10/17 08:20:47;;;;;;;6.10;5.50;;;;;;;22.55;38.02;96556.03;6112262;28;103054;-68
2022/10/17 08:23:50;;;;;;;6.70;6.20;;;;;;;22.55;38.46;96548.03;6112657;28;106337;-67
2022/10/17 08:26:57;;;;;;;5.83;5.43;;;;;;;22.55;37.96;96551.50;6107602;28;104164;-67
2022/10/17 08:30:00;;;;;;;6.30;5.90;;;;;;;22.57;38.03;96546.72;6105767;28;103101;-67
2022/10/17 08:33:03;;;;;;;6.60;6.07;;;;;;;22.55;38.04;96545.38;6111769;28;103218;-67
2022/10/17 08:36:07;;;;;;;6.30;5.80;;;;;;;22.54;38.29;96546.44;6111936;28;103946;-68
2022/10/17 08:39:10;;;;;;;5.97;5.50;;;;;;;22.51;38.12;96547.75;6102782;28;102887;-68
2022/10/17 08:42:34;;;;;;;6.67;6.13;;;;;;;22.51;38.56;96554.97;6110785;28;103177;-68
2022/10/17 08:45:45;;;;;;;6.80;6.30;;;;;;;22.48;38.73;96545.63;6111875;28;102709;-68
2022/10/17 08:48:51;;;;;;;7.20;6.60;;;;;;;22.50;38.92;96545.34;6111254;28;103090;-67
2022/10/17 08:51:59;;;;;;;6.97;6.47;;;;;;;22.48;38.76;96556.31;6101558;28;103121;-68
2022/10/17 08:55:02;;;;;;;7.23;6.63;;;;;;;22.46;38.40;96550.44;6111100;28;103217;-68
2022/10/17 08:58:14;;;;;;;7.30;6.70;;;;;;;22.43;38.59;96551.00;6113437;28;103318;-68
2022/10/17 09:01:33;;;;;;;7.50;6.90;;;;;;;22.42;38.65;96546.72;6111760;28;104075;-68
2022/10/17 09:04:51;;;;;;;8.27;7.60;;;;;;;22.40;38.70;96554.19;6113217;28;103908;-68
2022/10/17 09:08:05;;;;;;;7.83;7.23;;;;;;;22.35;38.82;96546.22;6115752;28;103280;-68
2022/10/17 09:11:21;;;;;;;8.87;8.20;;;;;;;22.35;38.96;96552.34;6115180;28;102652;-68
2022/10/17 09:14:44;;;;;;;8.13;7.53;;;;;;;22.38;39.23;96551.00;6105603;28;103628;-68
2022/10/17 09:17:54;;;;;;;8.47;7.77;;;;;;;22.34;39.04;96547.25;6115449;28;103062;-68
2022/10/17 09:21:02;;;;;;;8.70;8.00;;;;;;;22.36;38.91;96545.16;6115598;28;103073;-68
2022/10/17 09:24:12;;;;;;;8.10;7.43;;;;;;;22.40;38.84;96547.00;6110238;28;103426;-68
2022/10/17 09:27:25;;;;;;;8.33;7.73;;;;;;;22.40;39.04;96543.53;6112002;28;103555;-68
2022/10/17 09:30:36;;;;;;;8.23;7.43;;;;;;;22.40;38.63;96548.88;6114811;28;106266;-68
2022/10/17 09:33:49;;;;;;;8.23;7.63;;;;;;;22.41;39.09;96547.78;6115017;28;103312;-68
2022/10/17 09:36:59;;;;;;;8.43;7.83;;;;;;;22.40;38.55;96541.66;6104773;28;103259;-68
2022/10/17 09:40:02;;;;;;;8.63;7.93;;;;;;;22.39;38.63;96545.41;6114521;28;103561;-68
2022/10/17 09:43:07;;;;;;;8.93;8.23;;;;;;;22.39;38.78;96541.94;6114724;28;103238;-68
2022/10/17 09:46:20;;;;;;;8.80;8.10;;;;;;;22.42;38.68;96541.38;6114302;28;103107;-68
2022/10/17 09:49:29;;;;;;;9.03;8.33;;;;;;;22.41;38.77;96543.25;6108691;28;103970;-68
2022/10/17 09:52:35;;;;;;;7.80;7.30;;;;;;;22.41;39.04;96537.94;6115358;28;103697;-68
2022/10/17 09:55:42;;;;;;;8.30;7.60;;;;;;;22.42;38.74;96533.38;6114113;28;103255;-68
2022/10/17 09:58:47;;;;;;;8.17;7.47;;;;;;;22.42;38.74;96536.84;6105225;28;103274;-68
2022/10/17 10:02:07;;;;;;;7.73;7.20;;;;;;;22.42;39.07;96531.53;6113235;28;103237;-68
2022/10/17 10:05:16;;;;;;;8.03;7.33;;;;;;;22.44;38.55;96523.25;6115409;28;103506;-68
2022/10/17 10:08:20;;;;;;;6.90;6.40;;;;;;;22.43;38.97;96529.66;6113878;28;103338;-68
2022/10/17 10:11:25;;;;;;;7.60;7.10;;;;;;;22.43;38.88;96521.66;6103641;28;103433;-68
2022/10/17 10:14:32;;;;;;;7.43;6.83;;;;;;;22.41;39.06;96518.47;6114281;28;103131;-68
2022/10/17 10:17:40;;;;;;;7.80;7.20;;;;;;;22.40;38.83;96514.19;6113973;28;103106;-68
2022/10/17 10:20:45;;;;;;;6.90;6.40;;;;;;;22.39;39.28;96517.94;6109271;28;103269;-68
2022/10/17 10:24:12;;;;;;;7.93;7.33;;;;;;;22.42;39.16;96514.72;6108414;28;103225;-67
2022/10/17 10:27:17;;;;;;;7.30;6.70;;;;;;;22.39;38.91;96508.06;6114768;28;103433;-68
2022/10/17 10:30:25;;;;;;;7.80;7.20;;;;;;;22.37;39.32;96509.41;6114613;28;102776;-67
2022/10/17 10:33:31;;;;;;;7.03;6.50;;;;;;;22.37;38.72;96498.75;6102677;28;103231;-68
2022/10/17 10:36:48;;;;;;;7.17;6.57;;;;;;;22.35;39.14;96498.22;6113909;28;103274;-68
2022/10/17 10:39:53;;;;;;;7.23;6.73;;;;;;;22.32;39.02;96488.06;6114140;28;103444;-68
2022/10/17 10:42:58;;;;;;;6.80;6.30;;;;;;;22.31;39.19;96489.13;6114361;28;105189;-68
2022/10/17 10:46:17;;;;;;;6.00;5.50;;;;;;;22.29;39.15;96493.94;6105068;28;103270;-68
2022/10/17 10:49:32;;;;;;;7.27;6.77;;;;;;;22.28;39.31;96487.00;6113872;28;103108;-68
2022/10/17 10:52:42;;;;;;;7.27;6.77;;;;;;;22.23;38.99;96482.50;6113998;28;103431;-68
2022/10/17 10:55:50;;;;;;;6.57;6.10;;;;;;;22.23;39.10;96479.84;6103687;28;103378;-68
2022/10/17 10:58:56;;;;;;;6.43;5.93;;;;;;;22.21;39.04;96475.84;6113312;28;103250;-68
2022/10/17 11:02:04;;;;;;;7.07;6.43;;;;;;;22.20;39.13;96474.25;6113001;28;103242;-67
2022/10/17 11:05:17;;;;;;;6.53;6.03;;;;;;;22.18;39.48;96463.03;6112488;28;103148;-67
2022/10/17 11:08:29;;;;;;;6.43;5.93;;;;;;;22.17;39.65;96464.09;6102399;28;103355;-67
2022/10/17 11:11:38;;;;;;;7.07;6.47;;;;;;;22.17;39.17;96456.09;6113154;28;103231;-67
2022/10/17 11:14:46;;;;;;;6.60;6.10;;;;;;;22.11;39.29;96466.00;6113390;28;103093;-67
2022/10/17 11:17:56;;;;;;;6.27;5.70;;;;;;;22.13;39.19;96465.72;6089157;28;103227;-67
2022/10/17 11:21:10;;;;;;;6.00;5.53;;;;;;;22.11;39.26;96448.13;6111651;28;103357;-66
2022/10/17 11:24:20;;;;;;;5.57;5.07;;;;;;;22.08;39.32;96451.34;6113137;28;103175;-67
2022/10/17 11:27:24;;;;;;;5.80;5.40;;;;;;;22.06;39.84;96450.81;6113883;28;103768;-67
2022/10/17 11:30:39;;;;;;;5.87;5.47;;;;;;;22.05;39.78;96449.22;6101736;28;102884;-67
2022/10/17 11:33:47;;;;;;;6.43;5.93;;;;;;;22.02;39.85;96440.97;6112531;28;102996;-69
2022/10/17 11:36:56;;;;;;;6.10;5.70;;;;;;;22.02;39.29;96448.97;6112861;28;102893;-69
2022/10/17 11:40:03;;;;;;;5.30;4.90;;;;;;;22.01;39.70;96444.69;6108783;28;103275;-69
2022/10/17 11:43:14;;;;;;;6.43;5.93;;;;;;;21.99;39.47;96436.97;6107648;28;102845;-66
2022/10/17 11:46:22;;;;;;;5.90;5.50;;;;;;;22.00;39.27;96438.56;6113266;28;102868;-66
2022/10/17 11:49:30;;;;;;;5.70;5.30;;;;;;;21.99;39.46;96441.50;6112432;28;103108;-66
2022/10/17 11:52:45;;;;;;;5.57;5.10;;;;;;;21.92;39.95;96435.66;6101690;28;103040;-66
2022/10/17 11:56:05;;;;;;;5.77;5.37;;;;;;;21.85;39.96;96427.16;6112587;28;103556;-67
2022/10/17 11:59:30;;;;;;;5.83;5.37;;;;;;;21.85;40.22;96425.28;6112846;28;104823;-67
2022/10/17 12:02:42;;;;;;;5.20;4.80;;;;;;;21.83;40.07;96422.06;6111666;28;103471;-67
2022/10/17 12:05:50;;;;;;;5.43;5.03;;;;;;;21.82;39.92;96425.81;6106677;28;104130;-67
2022/10/17 12:09:01;;;;;;;4.87;4.57;;;;;;;21.77;39.78;96429.25;6111416;28;103194;-67
2022/10/17 12:12:04;;;;;;;5.63;5.13;;;;;;;21.77;39.91;96425.78;6112177;28;103228;-67
2022/10/17 12:15:37;;;;;;;5.20;4.80;;;;;;;21.75;40.21;96426.06;6101384;28;106100;-67
2022/10/17 12:18:40;;;;;;;5.33;4.93;;;;;;;21.73;39.83;96422.88;6038177;28;102839;-67
2022/10/17 12:21:55;;;;;;;5.57;5.10;;;;;;;21.73;40.23;96427.41;6111608;28;103155;-67
2022/10/17 12:25:02;;;;;;;5.10;4.70;;;;;;;21.72;39.89;96418.63;6112279;28;103107;-68
2022/10/17 12:28:15;;;;;;;6.03;5.53;;;;;;;21.71;40.13;96425.03;6102397;28;104578;-68
2022/10/17 12:31:24;;;;;;;4.60;4.30;;;;;;;21.71;39.76;96425.03;6113362;28;103211;-68
2022/10/17 12:34:35;;;;;;;4.63;4.33;;;;;;;21.71;39.99;96413.56;6116643;28;103062;-68
2022/10/17 12:38:02;;;;;;;5.20;4.80;;;;;;;21.70;40.07;96418.09;6105975;28;102994;-68
2022/10/17 12:41:07;;;;;;;4.67;4.37;;;;;;;21.69;40.45;96410.38;6116182;28;103373;-68
2022/10/17 12:44:36;;;;;;;5.17;4.77;;;;;;;21.64;40.12;96413.81;6115493;28;103421;-68
2022/10/17 12:47:39;;;;;;;5.77;5.27;;;;;;;21.63;40.39;96400.78;6116108;28;103549;-68
2022/10/17 12:51:04;;;;;;;4.43;4.13;;;;;;;21.62;40.17;96407.16;6105269;28;103033;-68
2022/10/17 12:54:28;;;;;;;5.10;4.70;;;;;;;21.63;40.54;96409.56;6115599;28;103662;-69
2022/10/17 12:57:57;;;;;;;5.00;4.70;;;;;;;21.61;40.22;96410.91;6115402;28;103546;-68
2022/10/17 13:01:00;;;;;;;4.80;4.40;;;;;;;21.59;40.01;96405.03;6105760;28;104164;-68
2022/10/17 13:04:24;;;;;;;4.50;4.20;;;;;;;21.61;40.15;96400.25;6115883;28;103095;-68
2022/10/17 13:07:28;;;;;;;4.73;4.43;;;;;;;21.59;40.15;96405.84;6115084;28;102704;-68
2022/10/17 13:10:35;;;;;;;3.97;3.73;;;;;;;21.56;40.58;96403.72;6116054;28;104088;-68
2022/10/17 13:13:47;;;;;;;4.80;4.40;;;;;;;21.56;40.46;96406.38;6105574;28;103410;-68
2022/10/17 13:16:54;;;;;;;4.70;4.30;;;;;;;21.56;40.09;96400.25;6115162;28;103170;-68
2022/10/17 13:19:57;;;;;;;4.50;4.10;;;;;;;21.57;40.57;96399.19;6115371;28;103269;-67
2022/10/17 13:23:01;;;;;;;4.40;4.00;;;;;;;21.57;40.13;96396.53;6104380;28;103586;-68
2022/10/17 13:26:12;;;;;;;4.23;3.93;;;;;;;21.55;40.37;96401.34;6115151;28;103084;-68
2022/10/17 13:29:19;;;;;;;4.57;4.27;;;;;;;21.53;40.42;96401.59;6115164;28;102803;-68
2022/10/17 13:32:23;;;;;;;4.30;4.00;;;;;;;21.51;40.32;96396.56;6115288;28;103236;-68
2022/10/17 13:35:30;;;;;;;4.53;4.23;;;;;;;21.50;40.42;96402.91;6104326;28;103223;-68
2022/10/17 13:38:53;;;;;;;4.53;4.20;;;;;;;21.48;40.60;96399.72;6115425;28;102861;-68
2022/10/17 13:41:58;;;;;;;5.17;4.80;;;;;;;21.49;40.37;96406.66;6114964;28;106751;-67
2022/10/17 13:45:03;;;;;;;4.60;4.20;;;;;;;21.49;40.31;96400.53;6107881;28;103126;-67
2022/10/17 13:48:17;;;;;;;4.40;4.10;;;;;;;21.49;40.57;96405.84;6109640;28;103257;-68
2022/10/17 13:51:20;;;;;;;3.83;3.63;;;;;;;21.49;40.44;96400.53;6114535;28;103254;-68
2022/10/17 13:54:33;;;;;;;4.00;3.70;;;;;;;21.47;40.27;96400.00;6114915;28;102943;-68
2022/10/17 13:57:37;;;;;;;4.53;4.13;;;;;;;21.46;40.35;96395.72;6104398;28;103174;-68
2022/10/17 14:00:41;;;;;;;4.67;4.27;;;;;;;21.46;40.68;96404.53;6115238;28;105750;-68
2022/10/17 14:03:45;;;;;;;4.73;4.43;;;;;;;21.45;40.43;96402.13;6114396;28;102952;-68
2022/10/17 14:06:52;;;;;;;4.37;4.07;;;;;;;21.45;40.67;96394.94;6114487;28;103229;-68
2022/10/17 14:09:56;;;;;;;4.50;4.10;;;;;;;21.44;40.81;96404.00;6104078;28;102807;-67
2022/10/17 14:13:00;;;;;;;4.20;3.90;;;;;;;21.44;40.34;96409.31;6114527;28;106377;-67
2022/10/17 14:16:07;;;;;;;4.40;4.03;;;;;;;21.44;40.75;96409.31;6114237;28;105062;-68
2022/10/17 14:19:21;;;;;;;4.43;4.13;;;;;;;21.44;40.84;96417.31;6109444;28;103330;-68
2022/10/17 14:22:28;;;;;;;4.80;4.50;;;;;;;21.43;40.57;96412.25;6110050;28;106168;-68
2022/10/17 14:25:34;;;;;;;3.40;3.20;;;;;;;21.41;40.53;96415.19;6114802;28;103618;-68
2022/10/17 14:28:38;;;;;;;3.50;3.30;;;;;;;21.41;40.73;96415.19;6113614;28;103442;-67
2022/10/17 14:31:43;;;;;;;4.00;3.70;;;;;;;21.41;40.65;96414.38;6103904;28;103210;-68